sensor_id;sensor_type;location;lat;lon;timestamp;P1;durP1;ratioP1;P2;durP2;ratioP2
4504;SDS011;2265;48.794;9.520;2023-03-01T00:00:09;6.13;;;3.27;;
4504;SDS011;2265;48.794;9.520;2023-03-01T00:02:36;9.53;;;4.60;;
4504;SDS011;2265;48.794;9.520;2023-03-01T00:05:04;7.00;;;3.47;;
4504;SDS011;2265;48.794;9.520;2023-03-01T00:07:33;6.70;;;3.17;;
4504;SDS011;2265;48.794;9.520;2023-03-01T00:10:00;11.20;;;4.57;;
4504;SDS011;2265;48.794;9.520;2023-03-01T00:12:28;5.00;;;2.63;;
4504;SDS011;2265;48.794;9.520;2023-03-01T00:14:56;4.03;;;2.80;;
4504;SDS011;2265;48.794;9.520;2023-03-01T00:17:23;8.27;;;4.63;;
4504;SDS011;2265;48.794;9.520;2023-03-01T00:19:50;4.73;;;2.73;;
4504;SDS011;2265;48.794;9.520;2023-03-01T00:22:18;8.00;;;3.10;;
4504;SDS011;2265;48.794;9.520;2023-03-01T00:24:46;8.73;;;4.57;;
4504;SDS011;2265;48.794;9.520;2023-03-01T00:27:13;14.03;;;4.10;;
4504;SDS011;2265;48.794;9.520;2023-03-01T00:29:40;5.57;;;2.93;;
4504;SDS011;2265;48.794;9.520;2023-03-01T00:32:08;5.37;;;3.57;;
4504;SDS011;2265;48.794;9.520;2023-03-01T00:34:35;5.83;;;3.63;;
4504;SDS011;2265;48.794;9.520;2023-03-01T00:37:02;7.67;;;3.37;;
4504;SDS011;2265;48.794;9.520;2023-03-01T00:39:30;5.67;;;3.23;;
4504;SDS011;2265;48.794;9.520;2023-03-01T00:41:59;6.00;;;4.00;;
4504;SDS011;2265;48.794;9.520;2023-03-01T00:44:26;11.97;;;5.50;;
4504;SDS011;2265;48.794;9.520;2023-03-01T00:46:54;6.27;;;3.90;;
4504;SDS011;2265;48.794;9.520;2023-03-01T00:49:21;6.30;;;3.50;;
4504;SDS011;2265;48.794;9.520;2023-03-01T00:51:52;6.03;;;3.20;;
4504;SDS011;2265;48.794;9.520;2023-03-01T00:54:20;6.30;;;3.23;;
4504;SDS011;2265;48.794;9.520;2023-03-01T00:56:47;8.90;;;3.87;;
4504;SDS011;2265;48.794;9.520;2023-03-01T00:59:15;10.03;;;4.40;;
4504;SDS011;2265;48.794;9.520;2023-03-01T01:01:42;8.20;;;4.17;;
4504;SDS011;2265;48.794;9.520;2023-03-01T01:04:10;6.40;;;3.40;;
4504;SDS011;2265;48.794;9.520;2023-03-01T01:06:38;7.30;;;3.47;;
4504;SDS011;2265;48.794;9.520;2023-03-01T01:09:07;8.30;;;3.83;;
4504;SDS011;2265;48.794;9.520;2023-03-01T01:11:43;15.87;;;3.53;;
4504;SDS011;2265;48.794;9.520;2023-03-01T01:14:11;9.13;;;4.50;;
4504;SDS011;2265;48.794;9.520;2023-03-01T01:16:40;9.10;;;4.07;;
4504;SDS011;2265;48.794;9.520;2023-03-01T01:19:08;4.67;;;3.33;;
4504;SDS011;2265;48.794;9.520;2023-03-01T01:21:36;7.00;;;4.90;;
4504;SDS011;2265;48.794;9.520;2023-03-01T01:24:05;5.47;;;2.53;;
4504;SDS011;2265;48.794;9.520;2023-03-01T01:26:33;8.57;;;4.30;;
4504;SDS011;2265;48.794;9.520;2023-03-01T01:29:01;3.73;;;2.80;;
4504;SDS011;2265;48.794;9.520;2023-03-01T01:31:29;6.57;;;3.37;;
4504;SDS011;2265;48.794;9.520;2023-03-01T01:33:59;7.40;;;3.87;;
4504;SDS011;2265;48.794;9.520;2023-03-01T01:36:28;6.37;;;3.40;;
4504;SDS011;2265;48.794;9.520;2023-03-01T01:38:56;8.67;;;4.17;;
4504;SDS011;2265;48.794;9.520;2023-03-01T01:41:23;5.57;;;3.00;;
4504;SDS011;2265;48.794;9.520;2023-03-01T01:46:39;6.13;;;3.77;;
4504;SDS011;2265;48.794;9.520;2023-03-01T01:49:12;4.97;;;3.20;;
4504;SDS011;2265;48.794;9.520;2023-03-01T01:51:47;5.40;;;3.47;;
4504;SDS011;2265;48.794;9.520;2023-03-01T01:54:18;5.27;;;3.53;;
4504;SDS011;2265;48.794;9.520;2023-03-01T01:56:51;9.90;;;3.87;;
4504;SDS011;2265;48.794;9.520;2023-03-01T01:59:22;7.63;;;4.03;;
4504;SDS011;2265;48.794;9.520;2023-03-01T02:01:51;7.33;;;3.47;;
4504;SDS011;2265;48.794;9.520;2023-03-01T02:04:20;8.30;;;3.70;;
4504;SDS011;2265;48.794;9.520;2023-03-01T02:06:49;9.23;;;3.90;;
4504;SDS011;2265;48.794;9.520;2023-03-01T02:09:22;9.20;;;4.30;;
4504;SDS011;2265;48.794;9.520;2023-03-01T02:11:50;3.80;;;2.73;;
4504;SDS011;2265;48.794;9.520;2023-03-01T02:14:17;6.20;;;3.30;;
4504;SDS011;2265;48.794;9.520;2023-03-01T02:16:44;6.37;;;3.30;;
4504;SDS011;2265;48.794;9.520;2023-03-01T02:19:16;11.53;;;4.17;;
4504;SDS011;2265;48.794;9.520;2023-03-01T02:21:51;7.33;;;3.67;;
4504;SDS011;2265;48.794;9.520;2023-03-01T02:24:32;4.93;;;3.70;;
4504;SDS011;2265;48.794;9.520;2023-03-01T02:27:08;4.97;;;3.07;;
4504;SDS011;2265;48.794;9.520;2023-03-01T02:29:38;9.50;;;4.73;;
4504;SDS011;2265;48.794;9.520;2023-03-01T02:32:05;9.37;;;3.93;;
4504;SDS011;2265;48.794;9.520;2023-03-01T02:34:32;4.83;;;3.53;;
4504;SDS011;2265;48.794;9.520;2023-03-01T02:37:00;5.63;;;3.63;;
4504;SDS011;2265;48.794;9.520;2023-03-01T02:39:33;3.90;;;2.90;;
4504;SDS011;2265;48.794;9.520;2023-03-01T02:42:07;5.23;;;2.83;;
4504;SDS011;2265;48.794;9.520;2023-03-01T02:44:40;5.83;;;3.33;;
4504;SDS011;2265;48.794;9.520;2023-03-01T02:47:07;5.60;;;3.67;;
4504;SDS011;2265;48.794;9.520;2023-03-01T02:49:35;7.57;;;3.97;;
4504;SDS011;2265;48.794;9.520;2023-03-01T02:52:08;4.70;;;3.93;;
4504;SDS011;2265;48.794;9.520;2023-03-01T02:54:48;12.57;;;4.40;;
4504;SDS011;2265;48.794;9.520;2023-03-01T02:57:22;5.10;;;3.10;;
4504;SDS011;2265;48.794;9.520;2023-03-01T02:59:53;12.20;;;4.00;;
4504;SDS011;2265;48.794;9.520;2023-03-01T03:02:23;7.07;;;3.87;;
4504;SDS011;2265;48.794;9.520;2023-03-01T03:05:05;6.03;;;3.67;;
4504;SDS011;2265;48.794;9.520;2023-03-01T03:07:36;12.10;;;4.13;;
4504;SDS011;2265;48.794;9.520;2023-03-01T03:10:06;6.77;;;3.80;;
4504;SDS011;2265;48.794;9.520;2023-03-01T03:12:37;8.73;;;3.40;;
4504;SDS011;2265;48.794;9.520;2023-03-01T03:15:07;7.43;;;3.10;;
4504;SDS011;2265;48.794;9.520;2023-03-01T03:17:39;9.20;;;4.50;;
4504;SDS011;2265;48.794;9.520;2023-03-01T03:20:08;4.50;;;3.23;;
4504;SDS011;2265;48.794;9.520;2023-03-01T03:22:37;11.73;;;3.47;;
4504;SDS011;2265;48.794;9.520;2023-03-01T03:25:05;7.50;;;3.83;;
4504;SDS011;2265;48.794;9.520;2023-03-01T03:27:38;8.33;;;3.50;;
4504;SDS011;2265;48.794;9.520;2023-03-01T03:30:08;6.10;;;3.43;;
4504;SDS011;2265;48.794;9.520;2023-03-01T03:32:37;5.03;;;3.20;;
4504;SDS011;2265;48.794;9.520;2023-03-01T03:35:18;10.13;;;3.00;;
4504;SDS011;2265;48.794;9.520;2023-03-01T03:37:57;5.77;;;3.43;;
4504;SDS011;2265;48.794;9.520;2023-03-01T03:40:30;5.33;;;4.00;;
4504;SDS011;2265;48.794;9.520;2023-03-01T03:42:59;6.57;;;3.70;;
4504;SDS011;2265;48.794;9.520;2023-03-01T03:45:28;6.90;;;3.83;;
4504;SDS011;2265;48.794;9.520;2023-03-01T03:47:59;4.40;;;2.90;;
4504;SDS011;2265;48.794;9.520;2023-03-01T03:50:26;10.80;;;4.20;;
4504;SDS011;2265;48.794;9.520;2023-03-01T03:52:53;7.23;;;3.50;;
4504;SDS011;2265;48.794;9.520;2023-03-01T03:55:20;5.93;;;3.50;;
4504;SDS011;2265;48.794;9.520;2023-03-01T03:57:48;7.70;;;3.80;;
4504;SDS011;2265;48.794;9.520;2023-03-01T04:00:17;5.83;;;3.00;;
4504;SDS011;2265;48.794;9.520;2023-03-01T04:02:47;6.33;;;3.77;;
4504;SDS011;2265;48.794;9.520;2023-03-01T04:05:15;8.00;;;3.57;;
4504;SDS011;2265;48.794;9.520;2023-03-01T04:07:45;12.80;;;4.87;;
4504;SDS011;2265;48.794;9.520;2023-03-01T04:10:13;11.70;;;4.87;;
4504;SDS011;2265;48.794;9.520;2023-03-01T04:12:41;4.37;;;3.07;;
4504;SDS011;2265;48.794;9.520;2023-03-01T04:15:10;6.93;;;4.60;;
4504;SDS011;2265;48.794;9.520;2023-03-01T04:17:40;10.53;;;4.90;;
4504;SDS011;2265;48.794;9.520;2023-03-01T04:20:11;10.07;;;4.30;;
4504;SDS011;2265;48.794;9.520;2023-03-01T04:22:42;9.93;;;4.30;;
4504;SDS011;2265;48.794;9.520;2023-03-01T04:25:12;9.83;;;5.00;;
4504;SDS011;2265;48.794;9.520;2023-03-01T04:27:40;10.37;;;4.13;;
4504;SDS011;2265;48.794;9.520;2023-03-01T04:30:07;8.80;;;4.73;;
4504;SDS011;2265;48.794;9.520;2023-03-01T04:32:35;8.13;;;4.30;;
4504;SDS011;2265;48.794;9.520;2023-03-01T04:35:03;8.57;;;4.13;;
4504;SDS011;2265;48.794;9.520;2023-03-01T04:37:32;8.70;;;4.00;;
4504;SDS011;2265;48.794;9.520;2023-03-01T04:40:01;5.30;;;3.10;;
4504;SDS011;2265;48.794;9.520;2023-03-01T04:42:37;5.90;;;3.60;;
4504;SDS011;2265;48.794;9.520;2023-03-01T04:45:06;11.93;;;4.23;;
4504;SDS011;2265;48.794;9.520;2023-03-01T04:47:38;7.17;;;3.30;;
4504;SDS011;2265;48.794;9.520;2023-03-01T04:50:06;7.43;;;4.30;;
4504;SDS011;2265;48.794;9.520;2023-03-01T04:52:35;6.27;;;3.50;;
4504;SDS011;2265;48.794;9.520;2023-03-01T04:55:03;4.17;;;3.50;;
4504;SDS011;2265;48.794;9.520;2023-03-01T04:57:31;7.63;;;3.73;;
4504;SDS011;2265;48.794;9.520;2023-03-01T04:59:58;6.20;;;3.50;;
4504;SDS011;2265;48.794;9.520;2023-03-01T05:02:25;5.93;;;3.50;;
4504;SDS011;2265;48.794;9.520;2023-03-01T05:04:52;10.13;;;5.20;;
4504;SDS011;2265;48.794;9.520;2023-03-01T05:07:22;7.23;;;4.30;;
4504;SDS011;2265;48.794;9.520;2023-03-01T05:09:52;6.43;;;3.50;;
4504;SDS011;2265;48.794;9.520;2023-03-01T05:12:19;5.63;;;3.60;;
4504;SDS011;2265;48.794;9.520;2023-03-01T05:14:46;8.40;;;3.30;;
4504;SDS011;2265;48.794;9.520;2023-03-01T05:17:13;9.50;;;3.90;;
4504;SDS011;2265;48.794;9.520;2023-03-01T05:19:40;7.47;;;3.50;;
4504;SDS011;2265;48.794;9.520;2023-03-01T05:22:08;5.13;;;2.93;;
4504;SDS011;2265;48.794;9.520;2023-03-01T05:24:35;4.43;;;2.90;;
4504;SDS011;2265;48.794;9.520;2023-03-01T05:27:05;8.20;;;4.53;;
4504;SDS011;2265;48.794;9.520;2023-03-01T05:29:32;6.33;;;3.93;;
4504;SDS011;2265;48.794;9.520;2023-03-01T05:32:00;11.47;;;5.13;;
4504;SDS011;2265;48.794;9.520;2023-03-01T05:34:29;8.50;;;4.70;;
4504;SDS011;2265;48.794;9.520;2023-03-01T05:36:58;11.57;;;4.47;;
4504;SDS011;2265;48.794;9.520;2023-03-01T05:39:26;5.20;;;3.50;;
4504;SDS011;2265;48.794;9.520;2023-03-01T05:41:55;8.57;;;4.77;;
4504;SDS011;2265;48.794;9.520;2023-03-01T05:44:24;10.53;;;3.67;;
4504;SDS011;2265;48.794;9.520;2023-03-01T05:46:52;8.07;;;3.90;;
4504;SDS011;2265;48.794;9.520;2023-03-01T05:49:19;10.03;;;4.20;;
4504;SDS011;2265;48.794;9.520;2023-03-01T05:51:50;8.00;;;4.93;;
4504;SDS011;2265;48.794;9.520;2023-03-01T05:54:18;9.27;;;4.30;;
4504;SDS011;2265;48.794;9.520;2023-03-01T05:56:47;7.63;;;3.07;;
4504;SDS011;2265;48.794;9.520;2023-03-01T05:59:14;7.07;;;3.90;;
4504;SDS011;2265;48.794;9.520;2023-03-01T06:01:45;3.20;;;2.40;;
4504;SDS011;2265;48.794;9.520;2023-03-01T06:04:13;9.77;;;4.37;;
4504;SDS011;2265;48.794;9.520;2023-03-01T06:06:44;7.13;;;4.17;;
4504;SDS011;2265;48.794;9.520;2023-03-01T06:09:11;9.03;;;4.90;;
4504;SDS011;2265;48.794;9.520;2023-03-01T06:11:39;7.77;;;3.90;;
4504;SDS011;2265;48.794;9.520;2023-03-01T06:14:07;6.77;;;4.27;;
4504;SDS011;2265;48.794;9.520;2023-03-01T06:16:35;10.83;;;4.70;;
4504;SDS011;2265;48.794;9.520;2023-03-01T06:19:04;7.23;;;4.20;;
4504;SDS011;2265;48.794;9.520;2023-03-01T06:21:32;5.20;;;3.30;;
4504;SDS011;2265;48.794;9.520;2023-03-01T06:23:59;6.60;;;4.40;;
4504;SDS011;2265;48.794;9.520;2023-03-01T06:26:26;9.77;;;4.50;;
4504;SDS011;2265;48.794;9.520;2023-03-01T06:28:53;9.10;;;4.07;;
4504;SDS011;2265;48.794;9.520;2023-03-01T06:31:20;6.50;;;4.40;;
4504;SDS011;2265;48.794;9.520;2023-03-01T06:33:48;10.03;;;5.30;;
4504;SDS011;2265;48.794;9.520;2023-03-01T06:36:16;6.53;;;3.93;;
4504;SDS011;2265;48.794;9.520;2023-03-01T06:38:46;7.53;;;4.07;;
4504;SDS011;2265;48.794;9.520;2023-03-01T06:41:13;10.73;;;4.17;;
4504;SDS011;2265;48.794;9.520;2023-03-01T06:43:40;14.13;;;4.97;;
4504;SDS011;2265;48.794;9.520;2023-03-01T06:46:07;4.53;;;2.90;;
4504;SDS011;2265;48.794;9.520;2023-03-01T06:48:34;8.57;;;4.10;;
4504;SDS011;2265;48.794;9.520;2023-03-01T06:51:01;6.73;;;3.90;;
4504;SDS011;2265;48.794;9.520;2023-03-01T06:53:30;7.97;;;4.13;;
4504;SDS011;2265;48.794;9.520;2023-03-01T06:55:57;8.87;;;4.17;;
4504;SDS011;2265;48.794;9.520;2023-03-01T06:58:25;6.70;;;3.80;;
4504;SDS011;2265;48.794;9.520;2023-03-01T07:00:53;17.57;;;6.27;;
4504;SDS011;2265;48.794;9.520;2023-03-01T07:03:20;8.37;;;3.73;;
4504;SDS011;2265;48.794;9.520;2023-03-01T07:05:48;10.43;;;5.50;;
4504;SDS011;2265;48.794;9.520;2023-03-01T07:08:16;12.63;;;5.20;;
4504;SDS011;2265;48.794;9.520;2023-03-01T07:10:45;7.37;;;3.90;;
4504;SDS011;2265;48.794;9.520;2023-03-01T07:13:12;10.23;;;3.93;;
4504;SDS011;2265;48.794;9.520;2023-03-01T07:15:51;4.63;;;2.90;;
4504;SDS011;2265;48.794;9.520;2023-03-01T07:18:19;7.23;;;3.60;;
4504;SDS011;2265;48.794;9.520;2023-03-01T07:20:46;8.87;;;4.73;;
4504;SDS011;2265;48.794;9.520;2023-03-01T07:23:15;9.67;;;4.53;;
4504;SDS011;2265;48.794;9.520;2023-03-01T07:25:45;8.10;;;3.93;;
4504;SDS011;2265;48.794;9.520;2023-03-01T07:28:18;6.83;;;3.37;;
4504;SDS011;2265;48.794;9.520;2023-03-01T07:30:45;6.83;;;3.40;;
4504;SDS011;2265;48.794;9.520;2023-03-01T07:33:13;6.97;;;3.80;;
4504;SDS011;2265;48.794;9.520;2023-03-01T07:35:40;10.20;;;4.77;;
4504;SDS011;2265;48.794;9.520;2023-03-01T07:38:08;9.63;;;3.73;;
4504;SDS011;2265;48.794;9.520;2023-03-01T07:40:35;8.47;;;3.90;;
4504;SDS011;2265;48.794;9.520;2023-03-01T07:43:04;6.70;;;4.37;;
4504;SDS011;2265;48.794;9.520;2023-03-01T07:45:31;5.50;;;4.30;;
4504;SDS011;2265;48.794;9.520;2023-03-01T07:47:58;9.63;;;4.40;;
4504;SDS011;2265;48.794;9.520;2023-03-01T07:50:25;7.83;;;3.63;;
4504;SDS011;2265;48.794;9.520;2023-03-01T07:52:52;7.70;;;4.37;;
4504;SDS011;2265;48.794;9.520;2023-03-01T07:55:19;11.57;;;5.40;;
4504;SDS011;2265;48.794;9.520;2023-03-01T07:57:46;9.30;;;3.67;;
4504;SDS011;2265;48.794;9.520;2023-03-01T08:00:15;5.13;;;3.83;;
4504;SDS011;2265;48.794;9.520;2023-03-01T08:02:43;7.70;;;4.00;;
4504;SDS011;2265;48.794;9.520;2023-03-01T08:05:10;6.83;;;3.50;;
4504;SDS011;2265;48.794;9.520;2023-03-01T08:07:37;9.50;;;4.37;;
4504;SDS011;2265;48.794;9.520;2023-03-01T08:10:05;11.03;;;4.83;;
4504;SDS011;2265;48.794;9.520;2023-03-01T08:12:32;7.50;;;3.73;;
4504;SDS011;2265;48.794;9.520;2023-03-01T08:14:59;9.63;;;3.83;;
4504;SDS011;2265;48.794;9.520;2023-03-01T08:17:28;8.20;;;4.83;;
4504;SDS011;2265;48.794;9.520;2023-03-01T08:19:55;13.03;;;4.30;;
4504;SDS011;2265;48.794;9.520;2023-03-01T08:22:22;8.30;;;4.60;;
4504;SDS011;2265;48.794;9.520;2023-03-01T08:24:49;4.60;;;3.37;;
4504;SDS011;2265;48.794;9.520;2023-03-01T08:27:17;7.63;;;3.20;;
4504;SDS011;2265;48.794;9.520;2023-03-01T08:29:44;7.10;;;4.40;;
4504;SDS011;2265;48.794;9.520;2023-03-01T08:32:11;6.00;;;3.90;;
4504;SDS011;2265;48.794;9.520;2023-03-01T08:34:40;4.87;;;3.30;;
4504;SDS011;2265;48.794;9.520;2023-03-01T08:37:07;11.87;;;5.00;;
4504;SDS011;2265;48.794;9.520;2023-03-01T08:39:36;8.10;;;5.03;;
4504;SDS011;2265;48.794;9.520;2023-03-01T08:42:03;8.20;;;4.00;;
4504;SDS011;2265;48.794;9.520;2023-03-01T08:44:30;6.90;;;3.23;;
4504;SDS011;2265;48.794;9.520;2023-03-01T08:46:58;3.90;;;3.10;;
4504;SDS011;2265;48.794;9.520;2023-03-01T08:49:27;5.07;;;3.23;;
4504;SDS011;2265;48.794;9.520;2023-03-01T08:51:55;6.30;;;4.07;;
4504;SDS011;2265;48.794;9.520;2023-03-01T08:54:22;6.13;;;4.53;;
4504;SDS011;2265;48.794;9.520;2023-03-01T08:56:49;10.33;;;3.97;;
4504;SDS011;2265;48.794;9.520;2023-03-01T08:59:17;3.50;;;3.33;;
4504;SDS011;2265;48.794;9.520;2023-03-01T09:01:44;6.70;;;4.13;;
4504;SDS011;2265;48.794;9.520;2023-03-01T09:04:11;6.37;;;3.93;;
4504;SDS011;2265;48.794;9.520;2023-03-01T09:06:39;7.90;;;4.53;;
4504;SDS011;2265;48.794;9.520;2023-03-01T09:09:10;8.47;;;4.03;;
4504;SDS011;2265;48.794;9.520;2023-03-01T09:11:41;4.03;;;3.50;;
4504;SDS011;2265;48.794;9.520;2023-03-01T09:14:09;6.70;;;4.10;;
4504;SDS011;2265;48.794;9.520;2023-03-01T09:16:37;9.13;;;4.40;;
4504;SDS011;2265;48.794;9.520;2023-03-01T09:19:04;6.63;;;3.57;;
4504;SDS011;2265;48.794;9.520;2023-03-01T09:21:32;7.20;;;4.10;;
4504;SDS011;2265;48.794;9.520;2023-03-01T09:23:59;9.97;;;4.67;;
4504;SDS011;2265;48.794;9.520;2023-03-01T09:26:28;7.77;;;3.50;;
4504;SDS011;2265;48.794;9.520;2023-03-01T09:28:55;8.57;;;4.67;;
4504;SDS011;2265;48.794;9.520;2023-03-01T09:31:23;11.60;;;3.83;;
4504;SDS011;2265;48.794;9.520;2023-03-01T09:33:51;8.20;;;4.07;;
4504;SDS011;2265;48.794;9.520;2023-03-01T09:36:21;8.17;;;3.90;;
4504;SDS011;2265;48.794;9.520;2023-03-01T09:38:50;5.37;;;3.67;;
4504;SDS011;2265;48.794;9.520;2023-03-01T09:41:23;10.63;;;4.57;;
4504;SDS011;2265;48.794;9.520;2023-03-01T09:44:29;12.00;;;4.13;;
4504;SDS011;2265;48.794;9.520;2023-03-01T09:47:02;10.10;;;4.23;;
4504;SDS011;2265;48.794;9.520;2023-03-01T09:49:31;13.23;;;4.07;;
4504;SDS011;2265;48.794;9.520;2023-03-01T09:52:03;14.10;;;4.20;;
4504;SDS011;2265;48.794;9.520;2023-03-01T09:54:44;16.13;;;4.73;;
4504;SDS011;2265;48.794;9.520;2023-03-01T09:57:15;9.23;;;4.60;;
4504;SDS011;2265;48.794;9.520;2023-03-01T09:59:59;10.00;;;3.80;;
4504;SDS011;2265;48.794;9.520;2023-03-01T10:02:38;7.67;;;4.17;;
4504;SDS011;2265;48.794;9.520;2023-03-01T10:05:14;12.03;;;3.83;;
4504;SDS011;2265;48.794;9.520;2023-03-01T10:08:00;9.37;;;4.37;;
4504;SDS011;2265;48.794;9.520;2023-03-01T10:10:43;10.07;;;4.20;;
4504;SDS011;2265;48.794;9.520;2023-03-01T10:13:15;10.10;;;5.17;;
4504;SDS011;2265;48.794;9.520;2023-03-01T10:15:47;11.57;;;4.37;;
4504;SDS011;2265;48.794;9.520;2023-03-01T10:18:20;8.60;;;4.10;;
4504;SDS011;2265;48.794;9.520;2023-03-01T10:20:51;6.60;;;4.10;;
4504;SDS011;2265;48.794;9.520;2023-03-01T10:23:19;11.17;;;4.30;;
4504;SDS011;2265;48.794;9.520;2023-03-01T10:26:00;12.47;;;5.40;;
4504;SDS011;2265;48.794;9.520;2023-03-01T10:28:41;9.33;;;4.87;;
4504;SDS011;2265;48.794;9.520;2023-03-01T10:31:18;12.83;;;5.53;;
4504;SDS011;2265;48.794;9.520;2023-03-01T10:33:48;8.47;;;3.90;;
4504;SDS011;2265;48.794;9.520;2023-03-01T10:36:19;11.47;;;4.30;;
4504;SDS011;2265;48.794;9.520;2023-03-01T10:38:47;11.10;;;5.03;;
4504;SDS011;2265;48.794;9.520;2023-03-01T10:41:17;16.30;;;5.30;;
4504;SDS011;2265;48.794;9.520;2023-03-01T10:43:47;8.43;;;4.10;;
4504;SDS011;2265;48.794;9.520;2023-03-01T10:46:21;8.97;;;4.00;;
4504;SDS011;2265;48.794;9.520;2023-03-01T10:49:04;8.97;;;4.67;;
4504;SDS011;2265;48.794;9.520;2023-03-01T10:51:33;10.20;;;4.60;;
4504;SDS011;2265;48.794;9.520;2023-03-01T10:54:00;6.87;;;3.67;;
4504;SDS011;2265;48.794;9.520;2023-03-01T10:56:29;13.97;;;4.80;;
4504;SDS011;2265;48.794;9.520;2023-03-01T10:59:22;14.60;;;5.50;;
4504;SDS011;2265;48.794;9.520;2023-03-01T11:02:04;10.97;;;5.33;;
4504;SDS011;2265;48.794;9.520;2023-03-01T11:04:54;14.67;;;4.70;;
4504;SDS011;2265;48.794;9.520;2023-03-01T11:07:23;9.00;;;4.07;;
4504;SDS011;2265;48.794;9.520;2023-03-01T11:09:51;18.13;;;5.53;;
4504;SDS011;2265;48.794;9.520;2023-03-01T11:12:20;19.23;;;5.83;;
4504;SDS011;2265;48.794;9.520;2023-03-01T11:14:49;12.77;;;4.80;;
4504;SDS011;2265;48.794;9.520;2023-03-01T11:17:21;17.90;;;5.97;;
4504;SDS011;2265;48.794;9.520;2023-03-01T11:20:01;14.50;;;5.90;;
4504;SDS011;2265;48.794;9.520;2023-03-01T11:22:31;13.17;;;5.17;;
4504;SDS011;2265;48.794;9.520;2023-03-01T11:25:01;11.97;;;5.10;;
4504;SDS011;2265;48.794;9.520;2023-03-01T11:27:31;10.60;;;4.77;;
4504;SDS011;2265;48.794;9.520;2023-03-01T11:30:01;13.13;;;4.67;;
4504;SDS011;2265;48.794;9.520;2023-03-01T11:32:32;17.50;;;5.60;;
4504;SDS011;2265;48.794;9.520;2023-03-01T11:35:05;16.43;;;5.60;;
4504;SDS011;2265;48.794;9.520;2023-03-01T11:37:41;12.67;;;5.30;;
4504;SDS011;2265;48.794;9.520;2023-03-01T11:40:21;14.83;;;5.87;;
4504;SDS011;2265;48.794;9.520;2023-03-01T11:42:54;13.33;;;5.63;;
4504;SDS011;2265;48.794;9.520;2023-03-01T11:45:35;11.97;;;5.07;;
4504;SDS011;2265;48.794;9.520;2023-03-01T11:48:17;16.00;;;5.40;;
4504;SDS011;2265;48.794;9.520;2023-03-01T11:51:01;20.10;;;6.47;;
4504;SDS011;2265;48.794;9.520;2023-03-01T11:53:34;17.10;;;5.50;;
4504;SDS011;2265;48.794;9.520;2023-03-01T11:56:22;12.13;;;5.30;;
4504;SDS011;2265;48.794;9.520;2023-03-01T11:59:02;15.63;;;5.83;;
4504;SDS011;2265;48.794;9.520;2023-03-01T12:01:54;26.50;;;6.37;;
4504;SDS011;2265;48.794;9.520;2023-03-01T12:04:49;13.57;;;5.70;;
4504;SDS011;2265;48.794;9.520;2023-03-01T12:07:36;12.73;;;5.60;;
4504;SDS011;2265;48.794;9.520;2023-03-01T12:10:19;14.00;;;5.80;;
4504;SDS011;2265;48.794;9.520;2023-03-01T12:12:56;12.33;;;5.53;;
4504;SDS011;2265;48.794;9.520;2023-03-01T12:15:46;12.30;;;5.67;;
4504;SDS011;2265;48.794;9.520;2023-03-01T12:21:49;10.80;;;5.07;;
4504;SDS011;2265;48.794;9.520;2023-03-01T12:27:39;14.03;;;5.07;;
4504;SDS011;2265;48.794;9.520;2023-03-01T12:30:31;17.90;;;5.70;;
4504;SDS011;2265;48.794;9.520;2023-03-01T12:33:14;9.70;;;5.43;;
4504;SDS011;2265;48.794;9.520;2023-03-01T12:36:05;13.50;;;5.47;;
4504;SDS011;2265;48.794;9.520;2023-03-01T12:38:50;14.13;;;5.73;;
4504;SDS011;2265;48.794;9.520;2023-03-01T12:41:32;17.40;;;6.37;;
4504;SDS011;2265;48.794;9.520;2023-03-01T12:44:11;14.63;;;5.23;;
4504;SDS011;2265;48.794;9.520;2023-03-01T12:46:58;17.57;;;6.57;;
4504;SDS011;2265;48.794;9.520;2023-03-01T12:49:48;11.20;;;5.50;;
4504;SDS011;2265;48.794;9.520;2023-03-01T12:52:22;15.23;;;5.73;;
4504;SDS011;2265;48.794;9.520;2023-03-01T12:54:54;13.13;;;6.17;;
4504;SDS011;2265;48.794;9.520;2023-03-01T12:57:28;13.90;;;5.40;;
4504;SDS011;2265;48.794;9.520;2023-03-01T13:00:08;12.37;;;5.20;;
4504;SDS011;2265;48.794;9.520;2023-03-01T13:02:49;18.93;;;6.63;;
4504;SDS011;2265;48.794;9.520;2023-03-01T13:05:28;13.70;;;5.67;;
4504;SDS011;2265;48.794;9.520;2023-03-01T13:08:07;18.20;;;5.63;;
4504;SDS011;2265;48.794;9.520;2023-03-01T13:10:43;14.53;;;5.57;;
4504;SDS011;2265;48.794;9.520;2023-03-01T13:13:14;11.03;;;5.03;;
4504;SDS011;2265;48.794;9.520;2023-03-01T13:15:46;18.53;;;6.90;;
4504;SDS011;2265;48.794;9.520;2023-03-01T13:18:29;16.30;;;5.80;;
4504;SDS011;2265;48.794;9.520;2023-03-01T13:20:58;11.13;;;6.10;;
4504;SDS011;2265;48.794;9.520;2023-03-01T13:23:29;16.77;;;6.10;;
4504;SDS011;2265;48.794;9.520;2023-03-01T13:26:08;14.80;;;5.80;;
4504;SDS011;2265;48.794;9.520;2023-03-01T13:28:41;14.60;;;5.80;;
4504;SDS011;2265;48.794;9.520;2023-03-01T13:37:24;13.97;;;6.07;;
4504;SDS011;2265;48.794;9.520;2023-03-01T13:40:01;14.00;;;5.33;;
4504;SDS011;2265;48.794;9.520;2023-03-01T13:42:35;14.60;;;5.60;;
4504;SDS011;2265;48.794;9.520;2023-03-01T13:45:12;14.33;;;6.10;;
4504;SDS011;2265;48.794;9.520;2023-03-01T13:47:46;16.13;;;6.07;;
4504;SDS011;2265;48.794;9.520;2023-03-01T13:50:16;13.43;;;5.70;;
4504;SDS011;2265;48.794;9.520;2023-03-01T13:52:48;13.60;;;5.87;;
4504;SDS011;2265;48.794;9.520;2023-03-01T13:55:27;15.80;;;5.77;;
4504;SDS011;2265;48.794;9.520;2023-03-01T13:58:04;13.57;;;5.60;;
4504;SDS011;2265;48.794;9.520;2023-03-01T14:00:40;13.97;;;5.73;;
4504;SDS011;2265;48.794;9.520;2023-03-01T14:03:12;12.80;;;5.93;;
4504;SDS011;2265;48.794;9.520;2023-03-01T14:05:41;12.40;;;5.53;;
4504;SDS011;2265;48.794;9.520;2023-03-01T14:08:20;12.27;;;5.77;;
4504;SDS011;2265;48.794;9.520;2023-03-01T14:11:03;12.90;;;5.63;;
4504;SDS011;2265;48.794;9.520;2023-03-01T14:13:51;13.40;;;6.00;;
4504;SDS011;2265;48.794;9.520;2023-03-01T14:16:31;13.93;;;5.83;;
4504;SDS011;2265;48.794;9.520;2023-03-01T14:19:08;15.37;;;6.00;;
4504;SDS011;2265;48.794;9.520;2023-03-01T14:21:42;13.53;;;5.63;;
4504;SDS011;2265;48.794;9.520;2023-03-01T14:24:15;12.43;;;5.43;;
4504;SDS011;2265;48.794;9.520;2023-03-01T14:26:48;14.13;;;5.60;;
4504;SDS011;2265;48.794;9.520;2023-03-01T14:29:26;12.50;;;5.77;;
4504;SDS011;2265;48.794;9.520;2023-03-01T14:32:12;12.30;;;5.03;;
4504;SDS011;2265;48.794;9.520;2023-03-01T14:34:46;14.30;;;5.70;;
4504;SDS011;2265;48.794;9.520;2023-03-01T14:37:17;16.17;;;6.60;;
4504;SDS011;2265;48.794;9.520;2023-03-01T14:39:46;16.43;;;6.57;;
4504;SDS011;2265;48.794;9.520;2023-03-01T14:42:15;13.10;;;5.53;;
4504;SDS011;2265;48.794;9.520;2023-03-01T14:44:43;15.40;;;6.03;;
4504;SDS011;2265;48.794;9.520;2023-03-01T14:47:14;12.77;;;5.57;;
4504;SDS011;2265;48.794;9.520;2023-03-01T14:49:47;20.03;;;6.60;;
4504;SDS011;2265;48.794;9.520;2023-03-01T14:52:20;17.53;;;7.00;;
4504;SDS011;2265;48.794;9.520;2023-03-01T14:54:52;13.37;;;5.13;;
4504;SDS011;2265;48.794;9.520;2023-03-01T14:57:22;13.53;;;5.80;;
4504;SDS011;2265;48.794;9.520;2023-03-01T14:59:51;13.63;;;5.90;;
4504;SDS011;2265;48.794;9.520;2023-03-01T15:02:21;16.57;;;5.93;;
4504;SDS011;2265;48.794;9.520;2023-03-01T15:04:51;17.53;;;6.90;;
4504;SDS011;2265;48.794;9.520;2023-03-01T15:07:21;13.53;;;5.83;;
4504;SDS011;2265;48.794;9.520;2023-03-01T15:09:51;14.90;;;5.97;;
4504;SDS011;2265;48.794;9.520;2023-03-01T15:12:34;13.13;;;5.57;;
4504;SDS011;2265;48.794;9.520;2023-03-01T15:15:18;10.47;;;5.40;;
4504;SDS011;2265;48.794;9.520;2023-03-01T15:18:03;12.80;;;6.07;;
4504;SDS011;2265;48.794;9.520;2023-03-01T15:20:32;11.83;;;5.50;;
4504;SDS011;2265;48.794;9.520;2023-03-01T15:23:02;16.30;;;5.80;;
4504;SDS011;2265;48.794;9.520;2023-03-01T15:25:30;11.40;;;5.60;;
4504;SDS011;2265;48.794;9.520;2023-03-01T15:28:00;12.33;;;5.70;;
4504;SDS011;2265;48.794;9.520;2023-03-01T15:30:29;14.80;;;5.47;;
4504;SDS011;2265;48.794;9.520;2023-03-01T15:35:46;13.33;;;4.90;;
4504;SDS011;2265;48.794;9.520;2023-03-01T15:38:25;13.67;;;5.63;;
4504;SDS011;2265;48.794;9.520;2023-03-01T15:40:54;10.17;;;4.87;;
4504;SDS011;2265;48.794;9.520;2023-03-01T15:46:16;19.00;;;6.90;;
4504;SDS011;2265;48.794;9.520;2023-03-01T15:48:46;16.07;;;6.47;;
4504;SDS011;2265;48.794;9.520;2023-03-01T15:51:19;13.70;;;6.40;;
4504;SDS011;2265;48.794;9.520;2023-03-01T15:53:50;17.70;;;6.53;;
4504;SDS011;2265;48.794;9.520;2023-03-01T15:56:19;14.27;;;6.67;;